Time;durP1;ratioP1;P1;durP2;ratioP2;P2;SDS_P1;SDS_P2;PMS_P1;PMS_P2;Temp;Humidity;BMP_temperature;BMP_pressure;BME280_temperature;BME280_humidity;BME280_pressure;Samples;Min_cycle;Max_cycle;Signal;HPM_P1;HPM_P2
2022/12/10 00:00:37;;;;;;;31.00;14.57;;;;;;;-144.47;97.19;65708.97;5007758;28;20079;-64
2022/12/10 00:03:02;;;;;;;27.55;14.38;;;;;;;-144.47;96.86;65716.94;5010772;28;20041;-67
2022/12/10 00:05:28;;;;;;;44.22;17.17;;;;;;;-144.47;96.74;65716.94;5011310;28;20018;-66
2022/12/10 00:07:53;;;;;;;37.90;16.40;;;;;;;-144.47;96.69;65706.97;5010233;28;20029;-68
2022/12/10 00:10:18;;;;;;;40.60;16.67;;;;;;;-144.47;96.76;65710.94;5011041;28;20026;-65
2022/12/10 00:12:44;;;;;;;33.83;15.13;;;;;;;-144.47;97.06;65699.00;5010728;28;20033;-68
2022/12/10 00:15:10;;;;;;;41.28;15.35;;;;;;;-144.47;97.37;65750.81;5011341;28;20539;-65
2022/12/10 00:17:36;;;;;;;40.50;16.50;;;;;;;-144.47;97.25;65740.84;5010403;28;20021;-67
2022/12/10 00:20:01;;;;;;;38.13;15.55;;;;;;;-144.47;97.06;65734.88;5009422;28;20038;-67
2022/12/10 00:22:27;;;;;;;45.10;18.23;;;;;;;-144.47;97.04;65718.94;5003868;28;20054;-67
2022/12/10 00:24:52;;;;;;;62.67;24.15;;;;;;;-144.47;97.44;65774.75;5007571;28;20105;-68
2022/12/10 00:27:20;;;;;;;40.33;16.70;;;;;;;-144.47;97.74;65794.69;5006697;28;20045;-67
2022/12/10 00:29:46;;;;;;;47.47;21.58;;;;;;;-144.47;97.57;65794.69;5008846;28;20668;-69
2022/12/10 00:32:11;;;;;;;52.10;19.38;;;;;;;-144.47;97.58;65804.66;5004446;28;20179;-68
2022/12/10 00:34:36;;;;;;;50.28;20.17;;;;;;;-144.47;97.44;65804.66;4998491;28;20049;-67
2022/12/10 00:37:02;;;;;;;38.45;16.70;;;;;;;-144.47;97.33;65790.69;4994711;28;20046;-67
2022/12/10 00:39:27;;;;;;;37.03;15.68;;;;;;;-144.47;97.29;65798.66;4995096;28;20036;-67
2022/12/10 00:41:53;;;;;;;32.58;15.13;;;;;;;-144.47;96.96;65798.66;4993381;28;20037;-67
2022/12/10 00:44:18;;;;;;;40.08;16.63;;;;;;;-144.47;96.81;65768.75;4993505;28;20164;-64
2022/12/10 00:46:44;;;;;;;33.03;12.85;;;;;;;-144.47;97.15;65776.75;4995210;28;20042;-69
2022/12/10 00:49:09;;;;;;;33.38;13.85;;;;;;;-144.47;97.06;65824.59;4993018;28;20117;-66
2022/12/10 00:51:35;;;;;;;38.15;16.13;;;;;;;-144.47;97.27;65798.66;4996568;28;20171;-65
2022/12/10 00:54:00;;;;;;;45.75;17.20;;;;;;;-144.47;97.73;65858.47;4995317;28;20784;-68
2022/12/10 00:56:29;;;;;;;37.95;15.27;;;;;;;-144.47;97.64;65838.53;4987383;28;20029;-68
2022/12/10 00:58:55;;;;;;;36.55;14.68;;;;;;;-144.47;97.25;65848.50;4979103;28;21141;-67
2022/12/10 01:01:31;;;;;;;33.95;15.57;;;;;;;-144.47;97.51;65854.50;4993206;28;20035;-68
2022/12/10 01:03:59;;;;;;;41.78;16.20;;;;;;;-144.47;97.32;65834.56;4994912;28;20388;-65
2022/12/10 01:06:28;;;;;;;36.55;15.18;;;;;;;-144.47;97.83;65898.38;4996199;28;20091;-67
2022/12/10 01:08:57;;;;;;;41.85;18.75;;;;;;;-144.47;97.85;65884.41;4999997;28;20035;-69
2022/12/10 01:11:26;;;;;;;33.13;15.88;;;;;;;-144.47;97.55;65906.34;5001896;28;20026;-69
2022/12/10 01:13:52;;;;;;;40.58;18.55;;;;;;;-144.47;97.60;65938.25;5008050;28;20041;-69
2022/12/10 01:16:20;;;;;;;47.50;19.30;;;;;;;-144.47;97.70;65898.38;5009023;28;20038;-64
2022/12/10 01:18:46;;;;;;;41.22;17.23;;;;;;;-144.47;97.85;65920.28;4999314;28;20037;-67
2022/12/10 01:21:17;;;;;;;41.85;16.83;;;;;;;-144.47;98.17;65950.19;5002496;28;20024;-67
2022/12/10 01:23:45;;;;;;;47.47;17.17;;;;;;;-144.47;98.11;65960.16;5008944;28;20046;-69
2022/12/10 01:26:13;;;;;;;36.88;16.05;;;;;;;-144.47;97.92;65932.25;5009330;28;20037;-66
2022/12/10 01:28:39;;;;;;;44.58;17.65;;;;;;;-144.47;97.92;65942.22;5009008;28;20025;-67
2022/12/10 01:31:09;;;;;;;54.15;19.33;;;;;;;-144.47;97.79;65970.13;5008220;28;20453;-67
2022/12/10 01:33:35;;;;;;;42.38;18.13;;;;;;;-144.47;97.93;65960.16;5009772;28;20479;-68
2022/12/10 01:36:07;;;;;;;40.72;16.50;;;;;;;-144.47;97.91;65982.09;5011340;28;20083;-67
2022/12/10 01:38:32;;;;;;;39.08;16.40;;;;;;;-144.47;97.86;65996.06;5012732;28;20109;-68
2022/12/10 01:40:58;;;;;;;43.92;17.13;;;;;;;-144.47;97.94;66000.03;5013608;28;20459;-67
2022/12/10 01:43:25;;;;;;;38.17;17.48;;;;;;;-144.47;97.91;65984.09;5014064;28;20439;-67
2022/12/10 01:45:50;;;;;;;41.90;17.48;;;;;;;-144.47;97.98;65986.09;5008878;28;20088;-65
2022/12/10 01:48:16;;;;;;;39.90;15.80;;;;;;;-144.47;97.88;66012.00;5014404;28;20512;-69
2022/12/10 01:50:41;;;;;;;35.70;15.27;;;;;;;-144.47;97.85;66023.97;5014179;28;20036;-67
2022/12/10 01:53:07;;;;;;;36.83;15.55;;;;;;;-144.47;97.99;66012.00;5013872;28;20056;-68
2022/12/10 01:55:50;;;;;;;44.50;17.23;;;;;;;-144.47;98.29;66027.97;5009908;28;20021;-68
2022/12/10 01:58:18;;;;;;;33.63;14.07;;;;;;;-144.47;98.36;66041.91;5006267;28;20022;-67
2022/12/10 02:01:03;;;;;;;40.50;16.08;;;;;;;-144.47;98.13;66010.00;5013645;28;20100;-64
2022/12/10 02:03:52;;;;;;;44.80;17.20;;;;;;;-144.47;98.10;66025.97;5012772;28;20045;-67
2022/12/10 02:06:23;;;;;;;;;;;;;;;-144.47;97.85;66021.97;5013908;28;20097;-68
2022/12/10 02:09:03;;;;;;;38.55;16.20;;;;;;;-144.47;97.85;66008.03;5011729;28;19922;-66
2022/12/10 02:11:41;;;;;;;36.40;14.38;;;;;;;-144.47;98.11;66065.84;5013033;28;20044;-69
2022/12/10 02:14:17;;;;;;;39.38;15.90;;;;;;;-144.47;97.61;65998.06;5012753;28;20026;-68
2022/12/10 02:16:58;;;;;;;35.63;14.88;;;;;;;-144.47;97.56;66019.97;5012729;28;20129;-69
2022/12/10 02:19:45;;;;;;;40.35;14.88;;;;;;;-144.47;97.31;65990.06;5012716;28;20526;-69
2022/12/10 02:22:13;;;;;;;33.40;14.65;;;;;;;-144.47;97.36;66012.00;5012463;28;20164;-65
2022/12/10 02:24:40;;;;;;;37.05;14.82;;;;;;;-144.47;97.16;65996.06;5012871;28;20053;-68
2022/12/10 02:27:18;;;;;;;41.20;14.60;;;;;;;-144.47;97.01;65968.16;5012715;28;20411;-67
2022/12/10 02:29:47;;;;;;;35.73;14.07;;;;;;;-144.47;96.97;65964.16;5012654;28;20029;-67
2022/12/10 02:32:21;;;;;;;36.05;13.40;;;;;;;-144.47;97.03;65988.09;5012805;28;20725;-64
2022/12/10 02:35:00;;;;;;;32.83;13.07;;;;;;;-144.47;96.67;65960.16;5000393;28;20411;-69
2022/12/10 02:37:35;;;;;;;29.95;12.98;;;;;;;-144.47;96.79;65962.16;5012271;28;20096;-68
2022/12/10 02:40:17;;;;;;;34.08;12.88;;;;;;;-144.47;96.79;65994.06;5012684;28;20127;-68
2022/12/10 02:42:46;;;;;;;32.00;13.52;;;;;;;-144.47;96.72;65924.28;5011460;28;20037;-68
2022/12/10 02:45:12;;;;;;;32.17;12.40;;;;;;;-144.47;96.23;65950.19;5007908;28;20034;-67
2022/12/10 02:47:39;;;;;;;32.90;13.57;;;;;;;-144.47;96.32;65940.22;5010970;28;20535;-65
2022/12/10 02:50:07;;;;;;;37.67;13.90;;;;;;;-144.47;96.44;65954.19;5012310;28;20022;-69
2022/12/10 02:52:33;;;;;;;28.88;12.75;;;;;;;-144.47;96.39;65958.19;5010719;28;20033;-68
2022/12/10 02:54:58;;;;;;;28.17;11.82;;;;;;;-144.47;96.15;65930.25;5008343;28;20038;-64
2022/12/10 02:57:39;;;;;;;33.13;13.60;;;;;;;-144.47;95.89;65910.31;5006253;28;20014;-67
2022/12/10 03:00:12;;;;;;;31.70;12.38;;;;;;;-144.47;96.01;65946.22;5009586;28;20033;-67
2022/12/10 03:02:55;;;;;;;31.75;13.43;;;;;;;-144.47;96.25;65964.16;5012445;28;20079;-67
2022/12/10 03:05:33;;;;;;;32.42;12.63;;;;;;;-144.47;96.38;65942.22;5012333;28;20026;-67
2022/12/10 03:08:05;;;;;;;29.20;13.75;;;;;;;-144.47;96.07;65928.28;5009370;28;20072;-66
2022/12/10 03:10:59;;;;;;;34.13;13.55;;;;;;;-144.47;96.15;65944.22;5012837;28;20029;-69
2022/12/10 03:13:32;;;;;;;32.22;14.07;;;;;;;-144.47;96.05;65926.28;5012120;28;20022;-67
2022/12/10 03:15:59;;;;;;;30.73;12.80;;;;;;;-144.47;95.89;65946.22;5012755;28;20480;-68
2022/12/10 03:18:27;;;;;;;36.42;15.35;;;;;;;-144.47;95.37;65942.22;5011983;28;20045;-67
2022/12/10 03:20:56;;;;;;;49.95;17.05;;;;;;;-144.47;95.54;65868.44;5012196;28;20030;-67
2022/12/10 03:23:23;;;;;;;38.15;15.55;;;;;;;-144.47;95.34;65868.44;5017928;23;20050;-65
2022/12/10 03:25:50;;;;;;;30.85;11.82;;;;;;;-144.47;95.32;65866.47;5008408;28;20037;-64
2022/12/10 03:28:19;;;;;;;30.92;13.23;;;;;;;-144.47;95.24;65916.31;5006028;28;20144;-65
2022/12/10 03:30:47;;;;;;;31.63;13.05;;;;;;;-144.47;95.10;65874.44;5010500;28;20037;-64
2022/12/10 03:33:13;;;;;;;27.83;12.40;;;;;;;-144.47;95.66;65878.44;5009905;28;20121;-63
2022/12/10 03:35:39;;;;;;;27.10;12.18;;;;;;;-144.47;95.33;65908.34;4995458;28;20022;-65
2022/12/10 03:38:05;;;;;;;34.90;13.23;;;;;;;-144.47;95.53;65916.31;5000340;28;20092;-63
2022/12/10 03:40:31;;;;;;;34.35;13.82;;;;;;;-144.47;95.67;65922.28;4999184;28;20093;-65
2022/12/10 03:42:56;;;;;;;36.70;13.73;;;;;;;-144.47;95.78;65918.31;4990403;28;20500;-65
2022/12/10 03:45:21;;;;;;;35.78;14.35;;;;;;;-144.47;96.37;65934.25;4987468;28;20044;-64
2022/12/10 03:47:49;;;;;;;39.92;15.13;;;;;;;-144.47;96.69;65956.19;4989115;28;20034;-64
2022/12/10 03:50:15;;;;;;;34.40;13.13;;;;;;;-144.47;96.39;65972.13;5004810;28;20022;-66
2022/12/10 03:52:40;;;;;;;31.92;13.25;;;;;;;-144.47;96.32;65980.09;5007716;28;20038;-66
2022/12/10 03:55:06;;;;;;;31.05;13.52;;;;;;;-144.47;96.51;65970.13;4994770;28;20041;-63
2022/12/10 03:57:32;;;;;;;32.83;13.93;;;;;;;-144.47;96.71;65978.13;4988538;28;20753;-62
2022/12/10 03:59:57;;;;;;;36.47;14.45;;;;;;;-144.47;96.52;66002.03;4990502;28;20096;-64
2022/12/10 04:02:23;;;;;;;35.25;13.43;;;;;;;-144.47;96.53;65976.13;5009453;28;20033;-64
2022/12/10 04:04:48;;;;;;;35.05;14.57;;;;;;;-144.47;96.63;65964.16;5007583;28;20026;-65
2022/12/10 04:07:13;;;;;;;39.45;15.68;;;;;;;-144.47;96.88;65998.06;5000862;28;20689;-64
2022/12/10 04:09:39;;;;;;;41.80;14.38;;;;;;;-144.47;97.39;66018.00;4990354;28;20408;-66
2022/12/10 04:12:04;;;;;;;38.25;14.82;;;;;;;-144.47;97.18;66037.94;5008366;28;20030;-64
2022/12/10 04:17:14;;;;;;;37.33;14.52;;;;;;;-144.47;97.00;66035.94;4998365;28;20057;-64
2022/12/10 04:19:39;;;;;;;36.47;15.15;;;;;;;-144.47;97.24;66071.81;4992397;28;20033;-66
2022/12/10 04:27:36;;;;;;;39.33;15.73;;;;;;;-144.47;97.80;66101.72;4990525;28;20122;-62
2022/12/10 04:30:03;;;;;;;38.58;15.48;;;;;;;-144.47;97.83;66151.59;5008887;28;20034;-62
2022/12/10 04:32:29;;;;;;;38.50;14.90;;;;;;;-144.47;97.97;66165.53;5005187;28;20026;-63
2022/12/10 04:34:55;;;;;;;37.05;15.73;;;;;;;-144.47;98.16;66189.47;4998106;28;20064;-65
2022/12/10 04:37:21;;;;;;;46.50;16.67;;;;;;;-144.47;98.31;66181.50;5006268;28;20018;-65
2022/12/10 04:39:48;;;;;;;47.47;17.17;;;;;;;-144.47;98.30;66203.44;4997548;28;20096;-65
2022/12/10 04:42:14;;;;;;;39.40;16.77;;;;;;;-144.47;98.38;66229.34;5008219;28;20116;-66
2022/12/10 04:44:39;;;;;;;47.47;16.92;;;;;;;-144.47;98.65;66249.28;4988237;28;20018;-64
2022/12/10 04:47:07;;;;;;;44.60;17.10;;;;;;;-144.47;98.92;66313.09;4991042;28;20128;-66
2022/12/10 04:49:33;;;;;;;49.17;18.10;;;;;;;-144.47;99.01;66317.09;5008017;28;20056;-63
2022/12/10 04:51:58;;;;;;;46.45;17.25;;;;;;;-144.47;99.05;66339.03;5007499;28;20069;-64
2022/12/10 04:54:24;;;;;;;49.45;17.95;;;;;;;-144.47;99.12;66331.03;5007662;28;20029;-63
2022/12/10 04:56:50;;;;;;;49.17;18.63;;;;;;;-144.47;99.23;66343.00;4993836;28;20114;-63
2022/12/10 04:59:16;;;;;;;55.83;18.92;;;;;;;-144.47;99.27;66321.06;4997650;28;20500;-66
2022/12/10 05:01:41;;;;;;;43.03;16.40;;;;;;;-144.47;99.32;66360.94;5002067;28;20034;-65
2022/12/10 05:04:09;;;;;;;51.25;19.67;;;;;;;-144.47;99.07;66362.94;5007975;28;20399;-66
2022/12/10 05:06:36;;;;;;;50.53;17.77;;;;;;;-144.47;99.23;66388.88;5004827;28;20148;-65
2022/12/10 05:09:02;;;;;;;42.78;17.08;;;;;;;-144.47;99.34;66390.88;4987967;28;20042;-64
2022/12/10 05:11:30;;;;;;;52.30;20.00;;;;;;;-144.47;99.49;66414.78;4997176;28;20052;-66
2022/12/10 05:13:56;;;;;;;45.90;17.90;;;;;;;-144.47;99.53;66456.66;5007800;28;20036;-64
2022/12/10 05:16:23;;;;;;;42.92;19.10;;;;;;;-144.47;99.80;66424.75;5004464;28;20420;-63
2022/12/10 05:18:50;;;;;;;47.88;19.92;;;;;;;-144.47;100.00;66484.59;4997586;28;20113;-64
2022/12/10 05:21:18;;;;;;;42.50;17.45;;;;;;;-144.47;99.82;66474.63;4994649;28;20033;-65
2022/12/10 05:23:47;;;;;;;45.67;16.77;;;;;;;-144.47;100.00;66492.56;5007514;28;20642;-65
2022/12/10 05:26:14;;;;;;;41.40;15.73;;;;;;;-144.47;100.00;66486.56;4993129;28;20061;-61
2022/12/10 05:28:57;;;;;;;47.40;18.45;;;;;;;-144.47;99.67;66470.63;4997192;28;20041;-65
2022/12/10 05:31:25;;;;;;;44.63;16.70;;;;;;;-144.47;99.67;66464.66;4987115;28;20125;-63
2022/12/10 05:33:52;;;;;;;45.07;18.43;;;;;;;-144.47;99.67;66438.72;5007098;28;20048;-66
2022/12/10 05:36:20;;;;;;;44.90;19.50;;;;;;;-144.47;99.88;66468.63;4994086;28;20468;-66
2022/12/10 05:38:45;;;;;;;50.72;17.77;;;;;;;-144.47;99.84;66466.63;4995090;28;20275;-64
2022/12/10 05:41:16;;;;;;;44.58;18.23;;;;;;;-144.47;99.94;66486.56;5000850;28;20500;-66
2022/12/10 05:43:43;;;;;;;46.67;16.50;;;;;;;-144.47;99.95;66518.47;4986929;28;20038;-67
2022/12/10 05:46:20;;;;;;;52.50;18.27;;;;;;;-144.47;99.75;66492.56;4988010;28;20037;-65
2022/12/10 05:48:46;;;;;;;44.72;17.05;;;;;;;-144.47;100.00;66518.47;5000857;28;20539;-65
2022/12/10 05:51:14;;;;;;;42.88;16.92;;;;;;;-144.47;99.60;66496.56;4988089;28;20034;-66
2022/12/10 05:53:41;;;;;;;44.47;18.15;;;;;;;-144.47;99.56;66488.56;5000735;28;20188;-65
2022/12/10 05:56:12;;;;;;;44.10;16.90;;;;;;;-144.47;99.43;66462.66;4982656;28;20627;-64
2022/12/10 05:58:39;;;;;;;46.95;16.70;;;;;;;-144.47;99.84;66500.53;4989280;28;20030;-65
2022/12/10 06:01:13;;;;;;;48.00;15.05;;;;;;;-144.47;99.69;66546.41;4983354;28;20103;-65
2022/12/10 06:03:38;;;;;;;44.05;17.67;;;;;;;-144.47;100.00;66536.44;4989244;28;20037;-63
2022/12/10 06:06:04;;;;;;;47.05;16.77;;;;;;;-144.47;100.00;66552.38;4986653;28;20030;-65
2022/12/10 06:08:30;;;;;;;47.58;17.23;;;;;;;-144.47;100.00;66540.41;4995687;28;20128;-64
2022/12/10 06:10:58;;;;;;;48.13;17.20;;;;;;;-144.47;100.00;66548.41;4994805;28;20169;-65
2022/12/10 06:13:23;;;;;;;46.05;18.70;;;;;;;-144.47;100.00;66592.28;5003373;28;20040;-64
2022/12/10 06:15:49;;;;;;;50.72;17.98;;;;;;;-144.47;100.00;66586.28;4994289;28;20034;-64
2022/12/10 06:18:14;;;;;;;46.83;16.52;;;;;;;-144.47;100.00;66550.41;4998762;28;20030;-64
2022/12/10 06:20:40;;;;;;;46.55;16.77;;;;;;;-144.47;100.00;66512.50;5000284;28;20510;-64
2022/12/10 06:23:06;;;;;;;44.45;17.77;;;;;;;-144.47;100.00;66634.16;4996991;28;20052;-66
2022/12/10 06:25:32;;;;;;;48.35;18.95;;;;;;;-144.47;100.00;66622.19;4998428;28;20176;-65
2022/12/10 06:27:58;;;;;;;44.95;16.60;;;;;;;-144.47;100.00;66614.22;5000464;28;20121;-66
2022/12/10 06:30:23;;;;;;;46.25;16.95;;;;;;;-144.47;100.00;66540.41;4983148;28;20157;-66
2022/12/10 06:32:48;;;;;;;45.15;17.35;;;;;;;-144.47;99.95;66564.34;4990214;28;20026;-64
2022/12/10 06:35:14;;;;;;;43.65;17.90;;;;;;;-144.47;100.00;66560.38;4998660;28;20046;-65
2022/12/10 06:37:39;;;;;;;47.83;16.98;;;;;;;-144.47;100.00;66610.22;5002192;28;20462;-63
2022/12/10 06:40:05;;;;;;;48.22;17.92;;;;;;;-144.47;100.00;66616.19;4992663;28;20093;-65
2022/12/10 06:42:30;;;;;;;49.90;18.88;;;;;;;-144.47;100.00;66622.19;4991701;28;20618;-67
2022/12/10 06:44:56;;;;;;;43.00;17.45;;;;;;;-144.47;100.00;66658.06;4990089;28;20124;-64
2022/12/10 06:47:22;;;;;;;43.25;16.10;;;;;;;-144.47;100.00;66636.16;4989925;28;20476;-66
2022/12/10 06:49:47;;;;;;;41.70;15.80;;;;;;;-144.47;100.00;66632.16;4998516;28;20018;-66
2022/12/10 06:52:13;;;;;;;50.10;17.35;;;;;;;-144.47;100.00;66648.09;4990649;28;20105;-66
2022/12/10 06:54:38;;;;;;;52.30;16.35;;;;;;;-144.47;100.00;66654.09;4989090;28;20105;-64
2022/12/10 06:57:04;;;;;;;45.60;16.13;;;;;;;-144.47;100.00;66620.19;4988929;28;20117;-65
2022/12/10 06:59:29;;;;;;;40.92;15.93;;;;;;;-144.47;100.00;66664.06;4981140;28;20471;-66
2022/12/10 07:01:54;;;;;;;44.45;16.80;;;;;;;-144.47;100.00;66695.97;4989980;28;20500;-65
2022/12/10 07:04:20;;;;;;;46.60;16.83;;;;;;;-144.47;100.00;66729.88;4992396;28;20058;-65
2022/12/10 07:06:45;;;;;;;53.35;18.35;;;;;;;-144.47;100.00;66705.94;4984664;28;20488;-65
2022/12/10 07:09:11;;;;;;;43.65;16.15;;;;;;;-144.47;100.00;66630.16;4995336;28;20090;-66
2022/12/10 07:11:37;;;;;;;45.10;17.60;;;;;;;-144.47;100.00;66600.25;4990040;28;20096;-64
2022/12/10 07:14:02;;;;;;;45.40;18.30;;;;;;;-144.47;100.00;66614.22;5003923;28;20412;-65
2022/12/10 07:16:30;;;;;;;46.88;17.38;;;;;;;-144.47;100.00;66586.28;4990102;28;20571;-64
2022/12/10 07:18:57;;;;;;;48.15;18.23;;;;;;;-144.47;99.54;66496.56;4987529;28;20515;-64
2022/12/10 07:21:31;;;;;;;48.72;18.95;;;;;;;-144.47;99.87;66484.59;4994722;28;20029;-66
2022/12/10 07:24:00;;;;;;;41.13;16.17;;;;;;;-144.47;100.00;66532.44;4989827;28;20026;-64
2022/12/10 07:26:28;;;;;;;52.75;18.63;;;;;;;-144.47;99.99;66472.63;4997982;28;20029;-64
2022/12/10 07:28:53;;;;;;;50.15;17.15;;;;;;;-144.47;100.00;66484.59;4986592;28;20366;-65
2022/12/10 07:31:20;;;;;;;45.67;18.92;;;;;;;-144.47;99.85;66444.69;4989266;28;20162;-65
2022/12/10 07:33:45;;;;;;;72.40;21.55;;;;;;;-144.47;100.00;66448.69;4988497;28;20123;-66
2022/12/10 07:36:12;;;;;;;48.00;19.67;;;;;;;-144.47;100.00;66462.66;4998446;28;20516;-66
2022/12/10 07:38:38;;;;;;;43.60;15.95;;;;;;;-144.47;100.00;66528.47;4992319;28;20536;-64
2022/12/10 07:41:08;;;;;;;43.03;17.27;;;;;;;-144.47;100.00;66516.50;4983175;28;20476;-64
2022/12/10 07:43:39;;;;;;;44.60;17.63;;;;;;;-144.47;100.00;66508.50;4985403;28;20330;-67
2022/12/10 07:46:10;;;;;;;54.67;18.92;;;;;;;-144.47;100.00;66396.84;4989679;28;20045;-65
2022/12/10 07:48:37;;;;;;;43.38;16.70;;;;;;;-144.47;100.00;66364.94;4998261;28;20040;-65
2022/12/10 07:51:03;;;;;;;47.58;18.50;;;;;;;-144.47;100.00;66309.09;4988823;28;20097;-65
2022/12/10 07:53:29;;;;;;;46.45;16.58;;;;;;;-144.47;100.00;66177.50;4990468;28;20558;-64
2022/12/10 07:55:54;;;;;;;42.38;17.70;;;;;;;-144.47;100.00;65990.06;4989195;28;20026;-65
2022/12/10 07:58:20;;;;;;;49.03;17.33;;;;;;;-144.47;100.00;65908.34;4989383;28;20468;-66
2022/12/10 08:00:45;;;;;;;50.00;21.35;;;;;;;-144.47;100.00;65704.97;4985644;28;20053;-66
2022/12/10 08:03:10;;;;;;;47.78;19.30;;;;;;;-144.47;100.00;65372.03;4980532;28;21335;-65
2022/12/10 08:05:37;;;;;;;54.22;20.83;;;;;;;-144.47;100.00;64951.44;4980128;28;20076;-68
2022/12/10 08:08:02;;;;;;;49.00;16.98;;;;;;;-144.47;100.00;64628.56;4981402;28;20599;-66
2022/12/10 08:10:28;;;;;;;47.10;18.60;;;;;;;-144.47;100.00;64233.94;4983323;28;20026;-63
2022/12/10 08:12:53;;;;;;;51.85;18.77;;;;;;;-144.47;100.00;63861.31;4980644;28;20092;-64
2022/12/10 08:15:18;;;;;;;46.08;16.55;;;;;;;-144.47;100.00;63403.03;4982101;28;20082;-65
2022/12/10 08:17:44;;;;;;;51.53;20.20;;;;;;;-144.47;100.00;63008.59;4981445;28;20030;-65
2022/12/10 08:20:09;;;;;;;51.88;18.88;;;;;;;-144.47;99.83;62566.38;4981638;28;20060;-64
2022/12/10 08:22:35;;;;;;;46.60;17.65;;;;;;;-144.47;99.72;62114.25;4979651;28;20245;-65
2022/12/10 08:25:01;;;;;;;40.95;17.83;;;;;;;-144.47;98.93;61506.88;4981752;28;20036;-64
2022/12/10 08:27:26;;;;;;;44.13;16.80;;;;;;;-144.47;98.93;61128.56;4981784;28;20034;-64
2022/12/10 08:29:52;;;;;;;40.72;15.27;;;;;;;-144.47;98.78;60953.38;4981039;28;20042;-64
2022/12/10 08:32:17;;;;;;;47.38;18.70;;;;;;;-144.47;98.38;60881.69;4982638;28;20038;-65
2022/12/10 08:34:42;;;;;;;45.50;18.42;;;;;;;-144.47;98.26;60865.75;4981436;28;20038;-64
2022/12/10 08:37:08;;;;;;;61.38;21.98;;;;;;;-144.47;98.55;60913.53;4982715;28;20029;-65
2022/12/10 08:39:33;;;;;;;45.85;18.77;;;;;;;-144.47;98.18;60887.66;4980974;28;20471;-64
2022/12/10 08:41:59;;;;;;;41.33;15.75;;;;;;;-144.47;98.30;60903.59;4980411;28;20030;-65
2022/12/10 08:44:24;;;;;;;46.75;19.50;;;;;;;-144.47;98.29;60915.53;4977834;28;20725;-65
2022/12/10 08:46:49;;;;;;;43.38;19.58;;;;;;;-144.47;98.45;60939.44;4980127;28;20065;-64
2022/12/10 08:49:15;;;;;;;47.75;16.75;;;;;;;-144.47;98.92;60989.19;4976941;28;20052;-65
2022/12/10 08:51:41;;;;;;;49.15;18.98;;;;;;;-144.47;98.96;61052.91;4975636;28;20037;-64
2022/12/10 08:54:06;;;;;;;36.42;14.65;;;;;;;-144.47;98.98;61086.75;4974004;28;20041;-63
2022/12/10 08:56:31;;;;;;;41.47;17.55;;;;;;;-144.47;98.68;61050.91;4975600;28;20026;-65
2022/12/10 08:58:57;;;;;;;49.00;16.90;;;;;;;-144.47;98.98;61029.03;4978351;28;20027;-64
2022/12/10 09:01:22;;;;;;;42.80;17.10;;;;;;;-144.47;98.93;60879.69;4976394;28;20034;-64
2022/12/10 09:03:48;;;;;;;47.67;18.30;;;;;;;-144.47;98.62;60849.84;4975150;28;20030;-66
2022/12/10 09:06:16;;;;;;;61.45;23.00;;;;;;;-144.47;98.53;60762.25;4977592;28;20045;-62
2022/12/10 09:08:41;;;;;;;48.88;18.00;;;;;;;-144.47;98.91;60750.28;4975872;28;20169;-64
2022/12/10 09:11:17;;;;;;;54.30;19.35;;;;;;;-144.47;99.16;60648.78;4977047;28;20128;-65
2022/12/10 09:13:42;;;;;;;108.15;31.75;;;;;;;-144.47;99.30;60595.03;4976181;28;20463;-66
2022/12/10 09:16:08;;;;;;;87.57;28.15;;;;;;;-144.47;99.21;60559.19;4977839;28;20101;-65
2022/12/10 09:18:34;;;;;;;78.97;25.73;;;;;;;-144.47;98.94;60539.28;4977235;28;20026;-63
2022/12/10 09:20:59;;;;;;;73.95;24.23;;;;;;;-144.47;99.41;60467.63;4978181;28;20096;-64
2022/12/10 09:23:25;;;;;;;121.50;33.17;;;;;;;-144.47;99.35;60429.78;4975382;28;20037;-65
2022/12/10 09:25:50;;;;;;;96.65;26.88;;;;;;;-144.47;98.91;60415.88;5000984;23;20053;-67
2022/12/10 09:28:16;;;;;;;62.20;22.15;;;;;;;-144.47;98.77;60431.78;4991666;28;20113;-65
2022/12/10 09:30:41;;;;;;;70.20;23.92;;;;;;;-144.47;98.76;60386.00;4991265;28;20050;-66
2022/12/10 09:33:06;;;;;;;85.80;28.65;;;;;;;-144.47;99.04;60388.00;4991992;28;20022;-66
2022/12/10 09:35:32;;;;;;;71.13;24.52;;;;;;;-144.47;98.93;60393.97;4978859;28;20018;-67
2022/12/10 09:37:57;;;;;;;43.60;17.38;;;;;;;-144.47;99.10;60364.09;4970496;28;20019;-66
2022/12/10 09:40:35;;;;;;;62.33;22.25;;;;;;;-144.47;98.95;60362.13;4972680;28;20053;-65
2022/12/10 09:43:11;;;;;;;55.25;19.85;;;;;;;-144.47;99.03;60306.38;4972455;28;20149;-67
2022/12/10 09:46:10;;;;;;;43.83;18.85;;;;;;;-144.47;98.58;60334.25;4972118;28;20515;-66
2022/12/10 09:49:01;;;;;;;46.95;18.83;;;;;;;-144.47;97.88;60300.41;4971869;28;20476;-66
2022/12/10 09:51:33;;;;;;;47.30;18.67;;;;;;;-144.47;97.64;60272.53;4975934;28;20061;-68
2022/12/10 09:54:01;;;;;;;47.90;17.67;;;;;;;-144.47;97.51;60210.84;4974586;28;20039;-66
2022/12/10 09:56:36;;;;;;;43.58;17.90;;;;;;;-144.47;97.79;60230.75;4976010;28;20041;-68
2022/12/10 09:59:20;;;;;;;44.35;17.10;;;;;;;-144.47;97.02;60194.91;4978340;28;20014;-67
2022/12/10 10:01:50;;;;;;;40.33;16.85;;;;;;;-144.47;96.42;60188.94;4975548;28;20101;-67
2022/12/10 10:04:16;;;;;;;39.03;16.83;;;;;;;-144.47;95.88;60137.19;4975977;28;20034;-69
2022/12/10 10:06:42;;;;;;;39.28;16.33;;;;;;;-144.47;95.53;60151.13;4975174;28;20038;-67
2022/12/10 10:09:13;;;;;;;40.92;14.77;;;;;;;-144.47;94.87;60135.19;4974531;28;20031;-67
2022/12/10 10:11:39;;;;;;;41.88;16.63;;;;;;;-144.47;94.63;60105.34;4973490;28;20046;-65
2022/12/10 10:14:12;;;;;;;43.05;16.92;;;;;;;-144.47;94.92;60053.59;4982247;28;20108;-65
2022/12/10 10:16:45;;;;;;;45.25;16.88;;;;;;;-144.47;94.40;60079.47;4981340;28;20026;-67
2022/12/10 10:19:24;;;;;;;41.17;14.88;;;;;;;-144.47;94.07;60129.22;4975986;28;20100;-67
2022/12/10 10:21:51;;;;;;;42.72;14.57;;;;;;;-144.47;93.88;60119.28;4976005;28;20079;-66
2022/12/10 10:24:22;;;;;;;32.63;14.93;;;;;;;-144.47;93.54;60161.06;4974772;28;20030;-67
2022/12/10 10:26:51;;;;;;;38.05;15.88;;;;;;;-144.47;93.46;60143.16;4973811;28;20033;-66
2022/12/10 10:29:20;;;;;;;43.50;17.38;;;;;;;-144.47;94.13;60133.22;4974475;28;20042;-66
2022/12/10 10:31:46;;;;;;;38.70;16.10;;;;;;;-144.47;93.88;60107.34;4973959;28;20042;-67
2022/12/10 10:34:19;;;;;;;37.45;15.77;;;;;;;-144.47;93.08;60095.41;4978265;28;20038;-67
2022/12/10 10:36:45;;;;;;;29.20;12.32;;;;;;;-144.47;92.67;60107.34;4975808;28;20425;-68
2022/12/10 10:39:16;;;;;;;35.75;13.68;;;;;;;-144.47;92.23;60089.44;4975449;28;20023;-67
2022/12/10 10:41:42;;;;;;;31.27;13.45;;;;;;;-144.47;92.51;60081.47;4977771;28;20038;-67
2022/12/10 10:44:18;;;;;;;36.28;15.05;;;;;;;-144.47;92.99;60055.59;4976750;28;20026;-68
2022/12/10 10:46:46;;;;;;;27.52;12.55;;;;;;;-144.47;92.90;60069.53;4973892;28;20101;-68
2022/12/10 10:49:25;;;;;;;35.90;13.73;;;;;;;-144.47;92.56;60109.31;4978064;28;20018;-68
2022/12/10 10:51:53;;;;;;;33.40;12.88;;;;;;;-144.47;92.58;60087.44;4973599;28;20039;-67
2022/12/10 10:54:45;;;;;;;35.17;14.20;;;;;;;-144.47;91.98;60079.47;4975798;28;20046;-67
2022/12/10 10:57:25;;;;;;;29.92;14.63;;;;;;;-144.47;92.09;60129.22;4975593;28;20039;-68
2022/12/10 10:59:56;;;;;;;32.47;13.68;;;;;;;-144.47;92.50;60103.34;4973309;28;20081;-68
2022/12/10 11:02:35;;;;;;;33.92;12.40;;;;;;;-144.47;92.54;60087.44;4974055;28;20146;-66
2022/12/10 11:05:16;;;;;;;27.13;11.70;;;;;;;-144.47;92.44;60057.56;4974586;28;20115;-66
2022/12/10 11:07:42;;;;;;;32.00;12.88;;;;;;;-144.47;92.03;60013.78;4973504;28;20054;-66
2022/12/10 11:10:20;;;;;;;32.00;13.15;;;;;;;-144.47;92.08;59993.88;4978280;28;20034;-69
2022/12/10 11:13:04;;;;;;;31.65;12.60;;;;;;;-144.47;92.12;59952.09;4973874;28;20043;-66